Platte River (Nebraska), Duncan (06774000)

StateNebraskaLatestUnknown (80 cfs)
RiverPlatte RiverRatingObservedEstimated
Updated2026-05-10 8:30 (46 minutes ago)Flood - The river is flooding. Obstacles can be treacherous or deadly. The river should be avoided at this stage for casual trips and definitely for the inexperienced. Trips should be attempted only with protective gear and equipment.Flood(none)(none)
Discharge80 cfs (median: 1660 cfs)High - The river is high and potentially dangerous, especially for the young and / or inexperienced. Normal stream obstacles are sometimes difficult to navigate. Extended distances can be attempted, but canoe travel may not be advisable.High(none)(none)
Height3.15 feetGood - Conditions are ideal for a canoe or kayak. Boats typically will drag on fewer than one-quarter of riffles, if at all, and portages are unnecessary or rare. Normal float lengths can be attempted without a problem.Good(none)(none)
TrendFalling (falling over 24 hours)Low - River is low but can still be floated. Some riffles are okay but most come with significant dragging and might need a portage. Float lengths should be reduced to accommodate low flow, dragging, and portages.Low(none)(none)
USGSExternal icon USGS Site (External icon Duck Duck Go Maps)Poor - River is too low to float comfortably. Most or all riffles will drag or must be portaged and some obstacles (such as slick shelf rock) cause undue problems. Avoid the river at this stage for casual paddling trips.Poor(none)(none)

Trending Data

Plot Image

Trips for Platte River (Nebraska), Duncan (06774000)

DateStartEndDistanceConditionDischargeHeightFishingDetails

A total of 0 rows are displayed.

Condition Descriptions

Fishing Conditions

Fish Species

Notes

Classic Trip List

The classic River Trips application is still available for use. It is updated with the new system using a data retrofit. It is no longer maintained. The original River Trips application is no longer updated (as of 1 Dec 2016) but can be checked for errors or for the condition of the data before it was converted to the new system.

Gauge Data Table

ObservationHeightDischargeMaximum
Discharge
Minimum
Discharge
Mean
Discharge
P05P10P20P25P50
(Median)
P75P80P90P95
2026-05-10 08:30 3.15 80 16400 (1984) 37 (1955) 2340 260 362 744 953 1660 3120 3420 4350 5790
2026-05-10 07:30 3.16 84 16400 (1984) 37 (1955) 2340 260 362 744 953 1660 3120 3420 4350 5790
2026-05-10 06:30 3.14 76 16400 (1984) 37 (1955) 2340 260 362 744 953 1660 3120 3420 4350 5790
2026-05-10 05:30 3.15 80 16400 (1984) 37 (1955) 2340 260 362 744 953 1660 3120 3420 4350 5790
2026-05-10 04:30 3.15 80 16400 (1984) 37 (1955) 2340 260 362 744 953 1660 3120 3420 4350 5790
2026-05-10 03:30 3.15 80 16400 (1984) 37 (1955) 2340 260 362 744 953 1660 3120 3420 4350 5790
2026-05-10 02:30 3.15 80 16400 (1984) 37 (1955) 2340 260 362 744 953 1660 3120 3420 4350 5790
2026-05-10 01:30 3.14 76 16400 (1984) 37 (1955) 2340 260 362 744 953 1660 3120 3420 4350 5790
2026-05-10 00:30 3.14 76 16400 (1984) 37 (1955) 2340 260 362 744 953 1660 3120 3420 4350 5790
2026-05-09 23:30 3.14 76 16400 (1984) 37 (1955) 2340 260 362 744 953 1660 3120 3420 4350 5790
2026-05-09 22:30 3.16 84 17300 (1984) 70 (1955) 2360 137 380 758 995 1600 3060 3490 4700 5760
2026-05-09 21:30 3.15 80 17300 (1984) 70 (1955) 2360 137 380 758 995 1600 3060 3490 4700 5760
2026-05-09 20:30 3.16 84 17300 (1984) 70 (1955) 2360 137 380 758 995 1600 3060 3490 4700 5760
2026-05-09 19:30 3.16 84 17300 (1984) 70 (1955) 2360 137 380 758 995 1600 3060 3490 4700 5760
2026-05-09 18:30 3.16 84 17300 (1984) 70 (1955) 2360 137 380 758 995 1600 3060 3490 4700 5760
2026-05-09 17:30 3.15 80 17300 (1984) 70 (1955) 2360 137 380 758 995 1600 3060 3490 4700 5760
2026-05-09 16:30 3.16 84 17300 (1984) 70 (1955) 2360 137 380 758 995 1600 3060 3490 4700 5760
2026-05-09 15:30 3.17 87 17300 (1984) 70 (1955) 2360 137 380 758 995 1600 3060 3490 4700 5760
2026-05-09 14:30 3.19 95 17300 (1984) 70 (1955) 2360 137 380 758 995 1600 3060 3490 4700 5760
2026-05-09 13:30 3.19 95 17300 (1984) 70 (1955) 2360 137 380 758 995 1600 3060 3490 4700 5760
2026-05-09 12:30 3.17 87 17300 (1984) 70 (1955) 2360 137 380 758 995 1600 3060 3490 4700 5760
2026-05-09 11:30 3.19 95 17300 (1984) 70 (1955) 2360 137 380 758 995 1600 3060 3490 4700 5760
2026-05-09 10:30 3.18 91 17300 (1984) 70 (1955) 2360 137 380 758 995 1600 3060 3490 4700 5760
2026-05-09 09:30 3.18 91 17300 (1984) 70 (1955) 2360 137 380 758 995 1600 3060 3490 4700 5760
2026-05-09 08:30 3.19 95 17300 (1984) 70 (1955) 2360 137 380 758 995 1600 3060 3490 4700 5760
2026-05-09 07:30 3.18 91 17300 (1984) 70 (1955) 2360 137 380 758 995 1600 3060 3490 4700 5760
2026-05-09 06:30 3.18 91 17300 (1984) 70 (1955) 2360 137 380 758 995 1600 3060 3490 4700 5760
2026-05-09 05:30 3.18 91 17300 (1984) 70 (1955) 2360 137 380 758 995 1600 3060 3490 4700 5760
2026-05-09 04:30 3.18 91 17300 (1984) 70 (1955) 2360 137 380 758 995 1600 3060 3490 4700 5760
2026-05-09 03:30 3.18 91 17300 (1984) 70 (1955) 2360 137 380 758 995 1600 3060 3490 4700 5760
2026-05-09 02:30 3.17 87 17300 (1984) 70 (1955) 2360 137 380 758 995 1600 3060 3490 4700 5760
2026-05-09 01:30 3.18 91 17300 (1984) 70 (1955) 2360 137 380 758 995 1600 3060 3490 4700 5760
2026-05-09 00:30 3.18 91 17300 (1984) 70 (1955) 2360 137 380 758 995 1600 3060 3490 4700 5760
2026-05-08 23:30 3.18 91 17300 (1984) 70 (1955) 2360 137 380 758 995 1600 3060 3490 4700 5760
2026-05-08 22:30 3.19 95 18000 (1984) 70 (1955) 2390 145 414 775 1070 1670 2840 3400 4890 6020
2026-05-08 21:30 3.18 91 18000 (1984) 70 (1955) 2390 145 414 775 1070 1670 2840 3400 4890 6020
2026-05-08 20:30 3.19 95 18000 (1984) 70 (1955) 2390 145 414 775 1070 1670 2840 3400 4890 6020
2026-05-08 19:30 3.19 95 18000 (1984) 70 (1955) 2390 145 414 775 1070 1670 2840 3400 4890 6020
2026-05-08 18:30 3.19 95 18000 (1984) 70 (1955) 2390 145 414 775 1070 1670 2840 3400 4890 6020
2026-05-08 17:30 3.20 99 18000 (1984) 70 (1955) 2390 145 414 775 1070 1670 2840 3400 4890 6020
2026-05-08 16:30 3.21 103 18000 (1984) 70 (1955) 2390 145 414 775 1070 1670 2840 3400 4890 6020
2026-05-08 15:30 3.21 103 18000 (1984) 70 (1955) 2390 145 414 775 1070 1670 2840 3400 4890 6020
2026-05-08 14:30 3.21 103 18000 (1984) 70 (1955) 2390 145 414 775 1070 1670 2840 3400 4890 6020
2026-05-08 13:30 3.23 112 18000 (1984) 70 (1955) 2390 145 414 775 1070 1670 2840 3400 4890 6020
2026-05-08 12:30 3.22 108 18000 (1984) 70 (1955) 2390 145 414 775 1070 1670 2840 3400 4890 6020
2026-05-08 11:30 3.22 108 18000 (1984) 70 (1955) 2390 145 414 775 1070 1670 2840 3400 4890 6020
2026-05-08 10:30 3.22 108 18000 (1984) 70 (1955) 2390 145 414 775 1070 1670 2840 3400 4890 6020
2026-05-08 09:30 3.23 112 18000 (1984) 70 (1955) 2390 145 414 775 1070 1670 2840 3400 4890 6020
2026-05-08 08:30 3.22 108 18000 (1984) 70 (1955) 2390 145 414 775 1070 1670 2840 3400 4890 6020
2026-05-08 07:30 3.21 103 18000 (1984) 70 (1955) 2390 145 414 775 1070 1670 2840 3400 4890 6020
2026-05-08 06:30 3.21 103 18000 (1984) 70 (1955) 2390 145 414 775 1070 1670 2840 3400 4890 6020
2026-05-08 05:30 3.21 103 18000 (1984) 70 (1955) 2390 145 414 775 1070 1670 2840 3400 4890 6020
2026-05-08 04:30 3.20 99 18000 (1984) 70 (1955) 2390 145 414 775 1070 1670 2840 3400 4890 6020
2026-05-08 03:30 3.22 108 18000 (1984) 70 (1955) 2390 145 414 775 1070 1670 2840 3400 4890 6020
2026-05-08 02:30 3.21 103 18000 (1984) 70 (1955) 2390 145 414 775 1070 1670 2840 3400 4890 6020
2026-05-08 01:30 3.22 108 18000 (1984) 70 (1955) 2390 145 414 775 1070 1670 2840 3400 4890 6020
2026-05-08 00:30 3.21 103 18000 (1984) 70 (1955) 2390 145 414 775 1070 1670 2840 3400 4890 6020
2026-05-07 23:30 3.23 112 18000 (1984) 70 (1955) 2390 145 414 775 1070 1670 2840 3400 4890 6020
2026-05-07 22:30 3.21 103 18100 (1984) 75 (1955) 2390 163 456 746 1070 1670 3000 3280 5100 6050
2026-05-07 21:30 3.22 108 18100 (1984) 75 (1955) 2390 163 456 746 1070 1670 3000 3280 5100 6050
2026-05-07 20:30 3.22 108 18100 (1984) 75 (1955) 2390 163 456 746 1070 1670 3000 3280 5100 6050
2026-05-07 19:30 3.23 112 18100 (1984) 75 (1955) 2390 163 456 746 1070 1670 3000 3280 5100 6050
2026-05-07 18:30 3.23 112 18100 (1984) 75 (1955) 2390 163 456 746 1070 1670 3000 3280 5100 6050
2026-05-07 17:30 3.23 112 18100 (1984) 75 (1955) 2390 163 456 746 1070 1670 3000 3280 5100 6050
2026-05-07 16:30 3.24 116 18100 (1984) 75 (1955) 2390 163 456 746 1070 1670 3000 3280 5100 6050
2026-05-07 15:30 3.24 116 18100 (1984) 75 (1955) 2390 163 456 746 1070 1670 3000 3280 5100 6050
2026-05-07 14:30 3.25 121 18100 (1984) 75 (1955) 2390 163 456 746 1070 1670 3000 3280 5100 6050
2026-05-07 13:30 3.25 121 18100 (1984) 75 (1955) 2390 163 456 746 1070 1670 3000 3280 5100 6050
2026-05-07 12:30 3.26 126 18100 (1984) 75 (1955) 2390 163 456 746 1070 1670 3000 3280 5100 6050
2026-05-07 11:30 3.25 121 18100 (1984) 75 (1955) 2390 163 456 746 1070 1670 3000 3280 5100 6050
2026-05-07 10:30 3.25 121 18100 (1984) 75 (1955) 2390 163 456 746 1070 1670 3000 3280 5100 6050
2026-05-07 09:30 3.26 126 18100 (1984) 75 (1955) 2390 163 456 746 1070 1670 3000 3280 5100 6050
2026-05-07 08:30 3.25 121 18100 (1984) 75 (1955) 2390 163 456 746 1070 1670 3000 3280 5100 6050
2026-05-07 07:30 3.26 126 18100 (1984) 75 (1955) 2390 163 456 746 1070 1670 3000 3280 5100 6050
2026-05-07 06:30 3.26 126 18100 (1984) 75 (1955) 2390 163 456 746 1070 1670 3000 3280 5100 6050
2026-05-07 05:30 3.26 126 18100 (1984) 75 (1955) 2390 163 456 746 1070 1670 3000 3280 5100 6050
2026-05-07 04:30 3.27 130 18100 (1984) 75 (1955) 2390 163 456 746 1070 1670 3000 3280 5100 6050
2026-05-07 03:30 3.26 126 18100 (1984) 75 (1955) 2390 163 456 746 1070 1670 3000 3280 5100 6050
2026-05-07 02:30 3.26 126 18100 (1984) 75 (1955) 2390 163 456 746 1070 1670 3000 3280 5100 6050
2026-05-07 01:30 3.27 130 18100 (1984) 75 (1955) 2390 163 456 746 1070 1670 3000 3280 5100 6050
2026-05-07 00:30 3.26 126 18100 (1984) 75 (1955) 2390 163 456 746 1070 1670 3000 3280 5100 6050
2026-05-06 23:30 3.26 126 18100 (1984) 75 (1955) 2390 163 456 746 1070 1670 3000 3280 5100 6050
2026-05-06 22:30 3.27 130 17200 (1984) 140 (1955) 2380 206 454 790 1080 1680 2890 3310 4850 6020
2026-05-06 21:30 3.27 130 17200 (1984) 140 (1955) 2380 206 454 790 1080 1680 2890 3310 4850 6020
2026-05-06 20:30 3.27 130 17200 (1984) 140 (1955) 2380 206 454 790 1080 1680 2890 3310 4850 6020
2026-05-06 19:30 3.27 130 17200 (1984) 140 (1955) 2380 206 454 790 1080 1680 2890 3310 4850 6020
2026-05-06 18:30 3.28 135 17200 (1984) 140 (1955) 2380 206 454 790 1080 1680 2890 3310 4850 6020
2026-05-06 17:30 3.29 140 17200 (1984) 140 (1955) 2380 206 454 790 1080 1680 2890 3310 4850 6020
2026-05-06 16:30 3.29 140 17200 (1984) 140 (1955) 2380 206 454 790 1080 1680 2890 3310 4850 6020
2026-05-06 15:30 3.29 140 17200 (1984) 140 (1955) 2380 206 454 790 1080 1680 2890 3310 4850 6020
2026-05-06 14:30 3.29 140 17200 (1984) 140 (1955) 2380 206 454 790 1080 1680 2890 3310 4850 6020
2026-05-06 13:30 3.30 145 17200 (1984) 140 (1955) 2380 206 454 790 1080 1680 2890 3310 4850 6020
2026-05-06 12:30 3.31 151 17200 (1984) 140 (1955) 2380 206 454 790 1080 1680 2890 3310 4850 6020
2026-05-06 11:30 3.30 145 17200 (1984) 140 (1955) 2380 206 454 790 1080 1680 2890 3310 4850 6020
2026-05-06 10:30 3.30 145 17200 (1984) 140 (1955) 2380 206 454 790 1080 1680 2890 3310 4850 6020
2026-05-06 09:30 3.30 145 17200 (1984) 140 (1955) 2380 206 454 790 1080 1680 2890 3310 4850 6020
2026-05-06 08:30 3.30 145 17200 (1984) 140 (1955) 2380 206 454 790 1080 1680 2890 3310 4850 6020
2026-05-06 07:30 3.30 145 17200 (1984) 140 (1955) 2380 206 454 790 1080 1680 2890 3310 4850 6020
2026-05-06 06:30 3.30 145 17200 (1984) 140 (1955) 2380 206 454 790 1080 1680 2890 3310 4850 6020
2026-05-06 05:30 3.30 145 17200 (1984) 140 (1955) 2380 206 454 790 1080 1680 2890 3310 4850 6020
2026-05-06 04:30 3.30 145 17200 (1984) 140 (1955) 2380 206 454 790 1080 1680 2890 3310 4850 6020
2026-05-06 03:30 3.29 140 17200 (1984) 140 (1955) 2380 206 454 790 1080 1680 2890 3310 4850 6020
2026-05-06 02:30 3.31 151 17200 (1984) 140 (1955) 2380 206 454 790 1080 1680 2890 3310 4850 6020
2026-05-06 01:30 3.31 151 17200 (1984) 140 (1955) 2380 206 454 790 1080 1680 2890 3310 4850 6020
2026-05-06 00:30 3.30 145 17200 (1984) 140 (1955) 2380 206 454 790 1080 1680 2890 3310 4850 6020
2026-05-05 23:30 3.31 151 17200 (1984) 140 (1955) 2380 206 454 790 1080 1680 2890 3310 4850 6020
2026-05-05 22:30 3.31 151 17500 (1984) 131 (2023) 2350 241 460 790 1000 1680 2670 3040 4970 5700
2026-05-05 21:30 3.31 151 17500 (1984) 131 (2023) 2350 241 460 790 1000 1680 2670 3040 4970 5700
2026-05-05 20:30 3.32 156 17500 (1984) 131 (2023) 2350 241 460 790 1000 1680 2670 3040 4970 5700
2026-05-05 19:30 3.32 156 17500 (1984) 131 (2023) 2350 241 460 790 1000 1680 2670 3040 4970 5700
2026-05-05 18:30 3.30 145 17500 (1984) 131 (2023) 2350 241 460 790 1000 1680 2670 3040 4970 5700
2026-05-05 17:30 3.31 151 17500 (1984) 131 (2023) 2350 241 460 790 1000 1680 2670 3040 4970 5700
2026-05-05 16:30 3.33 161 17500 (1984) 131 (2023) 2350 241 460 790 1000 1680 2670 3040 4970 5700
2026-05-05 15:30 3.33 161 17500 (1984) 131 (2023) 2350 241 460 790 1000 1680 2670 3040 4970 5700
2026-05-05 14:30 3.33 161 17500 (1984) 131 (2023) 2350 241 460 790 1000 1680 2670 3040 4970 5700
2026-05-05 13:30 3.34 167 17500 (1984) 131 (2023) 2350 241 460 790 1000 1680 2670 3040 4970 5700
2026-05-05 12:30 3.33 161 17500 (1984) 131 (2023) 2350 241 460 790 1000 1680 2670 3040 4970 5700
2026-05-05 11:30 3.35 173 17500 (1984) 131 (2023) 2350 241 460 790 1000 1680 2670 3040 4970 5700
2026-05-05 10:30 3.32 156 17500 (1984) 131 (2023) 2350 241 460 790 1000 1680 2670 3040 4970 5700
2026-05-05 09:30 3.34 167 17500 (1984) 131 (2023) 2350 241 460 790 1000 1680 2670 3040 4970 5700
2026-05-05 08:30 3.33 161 17500 (1984) 131 (2023) 2350 241 460 790 1000 1680 2670 3040 4970 5700
2026-05-05 07:30 3.33 161 17500 (1984) 131 (2023) 2350 241 460 790 1000 1680 2670 3040 4970 5700
2026-05-05 06:30 3.34 167 17500 (1984) 131 (2023) 2350 241 460 790 1000 1680 2670 3040 4970 5700
2026-05-05 05:30 3.32 156 17500 (1984) 131 (2023) 2350 241 460 790 1000 1680 2670 3040 4970 5700
2026-05-05 04:30 3.33 161 17500 (1984) 131 (2023) 2350 241 460 790 1000 1680 2670 3040 4970 5700
2026-05-05 03:30 3.34 167 17500 (1984) 131 (2023) 2350 241 460 790 1000 1680 2670 3040 4970 5700
2026-05-05 02:30 3.33 161 17500 (1984) 131 (2023) 2350 241 460 790 1000 1680 2670 3040 4970 5700
2026-05-05 01:30 3.32 156 17500 (1984) 131 (2023) 2350 241 460 790 1000 1680 2670 3040 4970 5700
2026-05-05 00:30 3.33 161 17500 (1984) 131 (2023) 2350 241 460 790 1000 1680 2670 3040 4970 5700
2026-05-04 23:30 3.32 156 17500 (1984) 131 (2023) 2350 241 460 790 1000 1680 2670 3040 4970 5700
2026-05-04 22:30 3.32 156 18000 (1984) 123 (2023) 2260 281 492 795 977 1720 2870 3020 4470 6200
2026-05-04 21:30 3.33 161 18000 (1984) 123 (2023) 2260 281 492 795 977 1720 2870 3020 4470 6200
2026-05-04 20:30 3.31 151 18000 (1984) 123 (2023) 2260 281 492 795 977 1720 2870 3020 4470 6200
2026-05-04 19:30 3.32 156 18000 (1984) 123 (2023) 2260 281 492 795 977 1720 2870 3020 4470 6200
2026-05-04 18:30 3.33 161 18000 (1984) 123 (2023) 2260 281 492 795 977 1720 2870 3020 4470 6200
2026-05-04 17:30 3.33 161 18000 (1984) 123 (2023) 2260 281 492 795 977 1720 2870 3020 4470 6200
2026-05-04 16:30 3.34 167 18000 (1984) 123 (2023) 2260 281 492 795 977 1720 2870 3020 4470 6200
2026-05-04 15:30 3.32 156 18000 (1984) 123 (2023) 2260 281 492 795 977 1720 2870 3020 4470 6200
2026-05-04 14:30 3.35 173 18000 (1984) 123 (2023) 2260 281 492 795 977 1720 2870 3020 4470 6200
2026-05-04 13:30 3.35 173 18000 (1984) 123 (2023) 2260 281 492 795 977 1720 2870 3020 4470 6200
2026-05-04 12:30 3.34 167 18000 (1984) 123 (2023) 2260 281 492 795 977 1720 2870 3020 4470 6200
2026-05-04 11:30 3.34 167 18000 (1984) 123 (2023) 2260 281 492 795 977 1720 2870 3020 4470 6200
2026-05-04 10:30 3.34 167 18000 (1984) 123 (2023) 2260 281 492 795 977 1720 2870 3020 4470 6200
2026-05-04 09:30 3.34 167 18000 (1984) 123 (2023) 2260 281 492 795 977 1720 2870 3020 4470 6200
2026-05-04 08:30 3.32 156 18000 (1984) 123 (2023) 2260 281 492 795 977 1720 2870 3020 4470 6200
2026-05-04 07:30 3.33 161 18000 (1984) 123 (2023) 2260 281 492 795 977 1720 2870 3020 4470 6200
2026-05-04 06:30 3.34 167 18000 (1984) 123 (2023) 2260 281 492 795 977 1720 2870 3020 4470 6200
2026-05-04 05:30 3.35 173 18000 (1984) 123 (2023) 2260 281 492 795 977 1720 2870 3020 4470 6200
2026-05-04 04:30 3.35 173 18000 (1984) 123 (2023) 2260 281 492 795 977 1720 2870 3020 4470 6200
2026-05-04 03:30 3.35 173 18000 (1984) 123 (2023) 2260 281 492 795 977 1720 2870 3020 4470 6200
2026-05-04 02:30 3.34 167 18000 (1984) 123 (2023) 2260 281 492 795 977 1720 2870 3020 4470 6200
2026-05-04 01:30 3.34 167 18000 (1984) 123 (2023) 2260 281 492 795 977 1720 2870 3020 4470 6200
2026-05-04 00:30 3.33 161 18000 (1984) 123 (2023) 2260 281 492 795 977 1720 2870 3020 4470 6200
2026-05-03 23:30 3.36 178 18000 (1984) 123 (2023) 2260 281 492 795 977 1720 2870 3020 4470 6200
2026-05-03 22:30 3.34 167 17100 (1984) 128 (2023) 2210 326 500 790 930 1690 2800 2940 4300 5560
2026-05-03 21:30 3.34 167 17100 (1984) 128 (2023) 2210 326 500 790 930 1690 2800 2940 4300 5560
2026-05-03 20:30 3.35 173 17100 (1984) 128 (2023) 2210 326 500 790 930 1690 2800 2940 4300 5560
2026-05-03 19:30 3.35 173 17100 (1984) 128 (2023) 2210 326 500 790 930 1690 2800 2940 4300 5560
2026-05-03 18:30 3.36 178 17100 (1984) 128 (2023) 2210 326 500 790 930 1690 2800 2940 4300 5560
2026-05-03 17:30 3.35 173 17100 (1984) 128 (2023) 2210 326 500 790 930 1690 2800 2940 4300 5560
2026-05-03 16:30 3.36 178 17100 (1984) 128 (2023) 2210 326 500 790 930 1690 2800 2940 4300 5560
2026-05-03 15:30 3.36 178 17100 (1984) 128 (2023) 2210 326 500 790 930 1690 2800 2940 4300 5560
2026-05-03 14:30 3.37 184 17100 (1984) 128 (2023) 2210 326 500 790 930 1690 2800 2940 4300 5560
2026-05-03 13:30 3.36 178 17100 (1984) 128 (2023) 2210 326 500 790 930 1690 2800 2940 4300 5560
2026-05-03 12:30 3.35 173 17100 (1984) 128 (2023) 2210 326 500 790 930 1690 2800 2940 4300 5560
2026-05-03 11:30 3.35 173 17100 (1984) 128 (2023) 2210 326 500 790 930 1690 2800 2940 4300 5560
2026-05-03 10:30 3.35 173 17100 (1984) 128 (2023) 2210 326 500 790 930 1690 2800 2940 4300 5560
2026-05-03 09:30 3.34 167 17100 (1984) 128 (2023) 2210 326 500 790 930 1690 2800 2940 4300 5560
2026-05-03 08:30 3.35 173 17100 (1984) 128 (2023) 2210 326 500 790 930 1690 2800 2940 4300 5560
2026-05-03 07:30 3.36 178 17100 (1984) 128 (2023) 2210 326 500 790 930 1690 2800 2940 4300 5560
2026-05-03 06:30 3.37 184 17100 (1984) 128 (2023) 2210 326 500 790 930 1690 2800 2940 4300 5560
2026-05-03 05:30 3.34 167 17100 (1984) 128 (2023) 2210 326 500 790 930 1690 2800 2940 4300 5560
2026-05-03 04:30 3.35 173 17100 (1984) 128 (2023) 2210 326 500 790 930 1690 2800 2940 4300 5560
2026-05-03 03:30 3.36 178 17100 (1984) 128 (2023) 2210 326 500 790 930 1690 2800 2940 4300 5560
2026-05-03 02:30 3.34 167 17100 (1984) 128 (2023) 2210 326 500 790 930 1690 2800 2940 4300 5560
2026-05-03 01:30 3.35 173 17100 (1984) 128 (2023) 2210 326 500 790 930 1690 2800 2940 4300 5560
2026-05-03 00:30 3.35 173 17100 (1984) 128 (2023) 2210 326 500 790 930 1690 2800 2940 4300 5560
2026-05-02 23:30 3.35 173 17100 (1984) 128 (2023) 2210 326 500 790 930 1690 2800 2940 4300 5560

A total of 178 rows are displayed for years 1942 through 2025.